createdAt,value
2018-06-16T02:01:09.232Z,0
2018-06-16T02:02:10.879Z,0
2018-06-16T02:04:02.807Z,0
2018-06-16T02:05:04.449Z,0
2018-06-16T02:06:06.095Z,0
2018-06-16T02:07:07.740Z,0
2018-06-16T02:08:09.386Z,0
2018-06-16T02:09:11.040Z,0
2018-06-16T02:10:12.686Z,0
2018-06-16T02:11:14.334Z,0
2018-06-16T02:12:15.982Z,0
2018-06-16T02:13:17.643Z,0
2018-06-16T02:14:19.299Z,0
2018-06-16T02:15:20.949Z,0
2018-06-16T02:16:22.598Z,0
2018-06-16T02:17:24.257Z,0
2018-06-16T02:18:25.921Z,0
2018-06-16T02:19:27.568Z,0
2018-06-16T02:20:29.219Z,0
2018-06-16T02:21:30.872Z,0
2018-06-16T02:22:32.532Z,0
2018-06-16T02:23:34.172Z,0
2018-06-16T02:24:35.816Z,0
2018-06-16T02:25:37.478Z,0
2018-06-16T02:26:39.124Z,0
2018-06-16T02:27:40.772Z,0
2018-06-16T02:28:42.429Z,4
2018-06-16T02:29:44.073Z,4
2018-06-16T02:30:45.728Z,4
2018-06-16T02:31:47.381Z,4
2018-06-16T02:32:49.035Z,4
2018-06-16T02:33:50.685Z,4
2018-06-16T02:34:52.335Z,4
2018-06-16T02:35:53.981Z,8
2018-06-16T02:36:55.625Z,4
2018-06-16T02:37:57.293Z,8
2018-06-16T02:38:58.943Z,8
2018-06-16T02:40:00.595Z,12
2018-06-16T02:41:02.251Z,12
2018-06-16T02:42:03.908Z,12
2018-06-16T02:43:05.590Z,16
2018-06-16T02:44:07.246Z,20
2018-06-16T02:45:08.904Z,20
2018-06-16T02:46:10.559Z,24
2018-06-16T02:47:12.209Z,24
2018-06-16T02:48:13.867Z,28
2018-06-16T02:49:15.532Z,36
2018-06-16T02:50:17.243Z,40
2018-06-16T02:51:18.789Z,44
2018-06-16T02:52:20.438Z,52
2018-06-16T02:53:22.116Z,56
2018-06-16T02:54:23.749Z,64
2018-06-16T02:55:25.414Z,68
2018-06-16T02:56:27.053Z,80
2018-06-16T02:57:28.710Z,84
2018-06-16T02:58:30.359Z,96
2018-06-16T02:59:32.014Z,108
2018-06-16T03:00:33.672Z,116
2018-06-16T03:01:35.333Z,128
2018-06-16T03:02:36.991Z,144
2018-06-16T03:03:38.642Z,156
2018-06-16T03:04:40.294Z,168
2018-06-16T03:05:41.947Z,188
2018-06-16T03:06:43.603Z,208
2018-06-16T03:07:45.257Z,228
2018-06-16T03:08:46.919Z,252
2018-06-16T03:09:48.581Z,280
2018-06-16T03:10:50.232Z,304
2018-06-16T03:11:51.889Z,332
2018-06-16T03:12:53.538Z,356
2018-06-16T03:13:55.195Z,384
2018-06-16T03:14:56.847Z,412
2018-06-16T03:15:58.501Z,440
2018-06-16T03:17:00.151Z,468
2018-06-16T03:18:01.804Z,504
2018-06-16T03:19:03.471Z,540
2018-06-16T03:20:05.123Z,576
2018-06-16T03:21:06.775Z,620
2018-06-16T03:22:08.432Z,668
2018-06-16T03:23:10.086Z,712
2018-06-16T03:24:11.740Z,760
2018-06-16T03:25:13.393Z,816
2018-06-16T03:26:15.050Z,880
2018-06-16T03:27:16.707Z,948
2018-06-16T03:28:18.366Z,1000
2018-06-16T03:29:20.024Z,1060
2018-06-16T03:30:21.679Z,1124
2018-06-16T03:31:23.331Z,1200
2018-06-16T03:32:24.982Z,1284
2018-06-16T03:33:26.639Z,1368
2018-06-16T03:34:28.333Z,1432
2018-06-16T03:35:29.984Z,1484
2018-06-16T03:36:31.634Z,1548
2018-06-16T03:37:33.292Z,1664
2018-06-16T03:38:34.952Z,1832
2018-06-16T03:39:36.596Z,2000
2018-06-16T03:40:38.256Z,2128
2018-06-16T03:41:39.915Z,2240
2018-06-16T03:42:41.564Z,2356
2018-06-16T03:43:43.230Z,2476
2018-06-16T03:44:44.894Z,2592
2018-06-16T03:45:46.546Z,2696
2018-06-16T03:46:48.210Z,2800
2018-06-16T03:47:49.859Z,2896
2018-06-16T03:48:51.499Z,2968
2018-06-16T03:49:53.162Z,3076
2018-06-16T03:50:54.822Z,3256
2018-06-16T03:51:56.484Z,3440
2018-06-16T03:52:58.146Z,3596
2018-06-16T03:53:59.847Z,3712
2018-06-16T03:55:01.535Z,3780
2018-06-16T03:56:03.186Z,3860
2018-06-16T03:57:04.850Z,3976
2018-06-16T03:58:06.507Z,4064
2018-06-16T03:59:08.181Z,4068
2018-06-16T04:00:09.826Z,4036
2018-06-16T04:01:11.481Z,4108
2018-06-16T04:02:13.133Z,4296
2018-06-16T04:03:14.792Z,4472
2018-06-16T04:04:16.460Z,4604
2018-06-16T04:05:18.118Z,4716
2018-06-16T04:06:19.780Z,4796
2018-06-16T04:07:21.439Z,4904
2018-06-16T04:08:23.147Z,5088
2018-06-16T04:09:24.799Z,5304
2018-06-16T04:10:26.457Z,5468
2018-06-16T04:11:28.111Z,5652
2018-06-16T04:12:29.776Z,5896
2018-06-16T04:13:31.434Z,6196
2018-06-16T04:14:33.091Z,6384
2018-06-16T04:15:34.751Z,6328
2018-06-16T04:16:36.418Z,6184
2018-06-16T04:17:38.070Z,6104
2018-06-16T04:18:39.730Z,6128
2018-06-16T04:19:41.391Z,6276
2018-06-16T04:20:43.063Z,6400
2018-06-16T04:21:44.714Z,6500
2018-06-16T04:22:46.368Z,6492
2018-06-16T04:23:48.031Z,6428
2018-06-16T04:24:49.688Z,6424
2018-06-16T04:25:51.352Z,6508
2018-06-16T04:26:53.024Z,6680
2018-06-16T04:27:54.681Z,6912
2018-06-16T04:28:56.336Z,7148
2018-06-16T04:29:57.997Z,7220
2018-06-16T04:30:59.654Z,7216
2018-06-16T04:32:01.448Z,7212
2018-06-16T04:33:03.015Z,7304
2018-06-16T04:34:04.670Z,7476
2018-06-16T04:35:06.362Z,7644
2018-06-16T04:36:08.026Z,7836
2018-06-16T04:37:09.919Z,8112
2018-06-16T04:38:11.590Z,8436
2018-06-16T04:39:13.253Z,9272
2018-06-16T04:40:14.907Z,9508
2018-06-16T04:41:16.570Z,9176
2018-06-16T04:42:18.238Z,9192
2018-06-16T04:43:19.896Z,9152
2018-06-16T04:44:21.561Z,8872
2018-06-16T04:45:23.234Z,8964
2018-06-16T04:46:24.866Z,9220
2018-06-16T04:47:26.533Z,9512
2018-06-16T04:48:28.190Z,9752
2018-06-16T04:49:29.902Z,9972
2018-06-16T04:50:31.603Z,10196
2018-06-16T04:51:33.268Z,10328
2018-06-16T04:52:34.917Z,10348
2018-06-16T04:53:36.591Z,10264
2018-06-16T04:54:38.254Z,10280
2018-06-16T04:55:39.919Z,10312
2018-06-16T04:56:41.584Z,10240
2018-06-16T04:57:43.251Z,10248
2018-06-16T04:58:44.910Z,10244
2018-06-16T04:59:46.563Z,10204
2018-06-16T05:00:48.225Z,10140
2018-06-16T05:01:49.887Z,10096
2018-06-16T05:02:51.551Z,10116
2018-06-16T05:03:53.219Z,10228
2018-06-16T05:04:54.867Z,10344
2018-06-16T05:05:56.532Z,10420
2018-06-16T05:06:58.189Z,10420
2018-06-16T05:07:59.856Z,10448
2018-06-16T05:09:01.553Z,10544
2018-06-16T05:10:03.206Z,10712
2018-06-16T05:11:04.870Z,10952
2018-06-16T05:12:06.518Z,11296
2018-06-16T05:13:08.185Z,11476
2018-06-16T05:14:09.860Z,11780
2018-06-16T05:15:11.522Z,12236
2018-06-16T05:16:13.187Z,12712
2018-06-16T05:17:14.845Z,13252
2018-06-16T05:18:16.533Z,13624
2018-06-16T05:19:18.193Z,13760
2018-06-16T05:20:19.852Z,13864
2018-06-16T05:21:21.518Z,14132
2018-06-16T05:22:23.177Z,14408
2018-06-16T05:23:24.835Z,14656
2018-06-16T05:24:26.518Z,14864
2018-06-16T05:25:28.175Z,14816
2018-06-16T05:26:29.837Z,14364
2018-06-16T05:27:31.492Z,13720
2018-06-16T05:28:33.156Z,13212
2018-06-16T05:29:34.815Z,13088
2018-06-16T05:30:36.471Z,13280
2018-06-16T05:31:38.137Z,13692
2018-06-16T05:32:39.846Z,14060
2018-06-16T05:33:41.506Z,14272
2018-06-16T05:34:43.174Z,14444
2018-06-16T05:35:44.836Z,15108
2018-06-16T05:36:46.499Z,15720
2018-06-16T05:37:48.153Z,16104
2018-06-16T05:38:49.817Z,16176
2018-06-16T05:39:51.478Z,16196
2018-06-16T05:40:53.159Z,16548
2018-06-16T05:41:54.821Z,17472
2018-06-16T05:42:56.496Z,18048
2018-06-16T05:43:58.147Z,18912
2018-06-16T05:44:59.810Z,19680
2018-06-16T05:46:01.519Z,22272
2018-06-16T05:47:03.180Z,20544
2018-06-16T05:48:04.868Z,19072
2018-06-16T05:49:06.534Z,18400
2018-06-16T05:50:08.201Z,18080
2018-06-16T05:51:09.854Z,17536
2018-06-16T05:52:11.524Z,17044
2018-06-16T05:53:13.208Z,16940
2018-06-16T05:54:14.872Z,16972
2018-06-16T05:55:16.529Z,17344
2018-06-16T06:01:58.205Z,18624
2018-06-16T06:02:59.866Z,18464
2018-06-16T06:04:51.900Z,18400
2018-06-16T06:05:53.546Z,19008
2018-06-16T06:07:45.544Z,22016
2018-06-16T06:08:47.201Z,20960
2018-06-16T06:10:39.268Z,20544
2018-06-16T06:11:40.894Z,20800
2018-06-16T06:13:32.895Z,21920
2018-06-16T06:14:34.565Z,22848
2018-06-16T06:16:26.564Z,22912
2018-06-16T06:17:28.219Z,24320
2018-06-16T06:19:20.247Z,22656
2018-06-16T06:20:21.912Z,22368
2018-06-16T06:22:13.907Z,21952
2018-06-16T06:23:15.563Z,22240
2018-06-16T06:24:17.225Z,32448
2018-06-16T06:25:18.901Z,23648
2018-06-16T06:26:20.563Z,22944
2018-06-16T06:27:22.224Z,23296
2018-06-16T06:28:23.900Z,22560
2018-06-16T06:29:25.572Z,27872
2018-06-16T06:30:27.245Z,29344
2018-06-16T06:31:28.903Z,33216
2018-06-16T06:32:30.573Z,27648
2018-06-16T06:33:32.233Z,26240
2018-06-16T06:34:33.904Z,26208
2018-06-16T06:35:35.578Z,36032
2018-06-16T06:36:37.243Z,27392
2018-06-16T06:37:38.903Z,26944
2018-06-16T06:38:40.651Z,28800
2018-06-16T06:39:42.326Z,29504
2018-06-16T06:40:43.995Z,24672
2018-06-16T06:41:45.664Z,23648
2018-06-16T06:42:47.335Z,23712
2018-06-16T06:43:49.006Z,24064
2018-06-16T06:44:50.669Z,24896
2018-06-16T06:45:52.325Z,29728
2018-06-16T06:46:54.001Z,27808
2018-06-16T06:47:55.665Z,31584
2018-06-16T06:48:57.335Z,32256
2018-06-16T06:49:58.995Z,39392
2018-06-16T06:51:00.716Z,45280
2018-06-16T06:52:02.325Z,55904
2018-06-16T06:53:03.984Z,64768
2018-06-16T06:54:05.647Z,69664
2018-06-16T06:55:07.324Z,65664
2018-06-16T06:56:08.995Z,52800
2018-06-16T06:57:10.663Z,37312
2018-06-16T06:58:12.339Z,37344
2018-06-16T06:59:14.007Z,39424
2018-06-16T07:00:15.670Z,36160
2018-06-16T07:01:17.338Z,33344
2018-06-16T07:02:19.003Z,32960
2018-06-16T07:03:20.672Z,34240
2018-06-16T07:04:22.345Z,58528
2018-06-16T07:05:24.021Z,32448
2018-06-16T07:06:25.696Z,45856
2018-06-16T07:07:27.368Z,49824
2018-06-16T07:08:29.035Z,54656
2018-06-16T07:09:30.747Z,40928
2018-06-16T07:10:32.416Z,57472
2018-06-16T07:11:34.056Z,57152
2018-06-16T07:12:35.724Z,61312
2018-06-16T07:13:37.406Z,65792
2018-06-16T07:14:39.075Z,62400
2018-06-16T07:15:40.742Z,64768
2018-06-16T07:16:42.410Z,56160
2018-06-16T07:17:44.088Z,53216
2018-06-16T07:18:45.756Z,55136
2018-06-16T07:19:47.436Z,46016
2018-06-16T07:20:49.132Z,38368
2018-06-16T07:21:50.812Z,49376
2018-06-16T07:22:52.476Z,56992
2018-06-16T07:23:54.149Z,57568
2018-06-16T07:24:55.841Z,55680
2018-06-16T07:25:57.496Z,57824
2018-06-16T07:26:59.173Z,64160
2018-06-16T07:28:00.854Z,68256
2018-06-16T07:29:02.543Z,71136
2018-06-16T07:30:04.244Z,71136
2018-06-16T07:31:05.926Z,70304
2018-06-16T07:32:07.600Z,57920
2018-06-16T07:33:09.279Z,48992
2018-06-16T07:34:10.969Z,43520
2018-06-16T07:35:12.634Z,40192
2018-06-16T07:36:14.321Z,37728
2018-06-16T07:37:15.977Z,37504
2018-06-16T07:38:17.645Z,42432
2018-06-16T07:39:19.321Z,47488
2018-06-16T07:40:20.993Z,43456
2018-06-16T07:41:22.680Z,44736
2018-06-16T07:42:24.364Z,43392
2018-06-16T07:43:26.026Z,69312
2018-06-16T07:44:27.709Z,61664
2018-06-16T07:45:29.379Z,46560
2018-06-16T07:46:31.058Z,59520
2018-06-16T07:47:32.735Z,60960
2018-06-16T07:48:34.403Z,86016
2018-06-16T07:49:36.081Z,82592
2018-06-16T07:50:37.750Z,71488
2018-06-16T07:51:39.423Z,68800
2018-06-16T07:52:41.132Z,40800
2018-06-16T07:53:42.802Z,37440
2018-06-16T07:54:44.495Z,33216
2018-06-16T07:55:46.183Z,31776
2018-06-16T07:56:47.863Z,50368
2018-06-16T07:57:49.523Z,44800
2018-06-16T07:58:51.214Z,48576
2018-06-16T07:59:52.883Z,74144
2018-06-16T08:00:54.552Z,79424
2018-06-16T08:01:56.237Z,71552
2018-06-16T08:02:57.910Z,60416
2018-06-16T08:03:59.583Z,71264
2018-06-16T08:05:01.280Z,76736
2018-06-16T08:06:02.968Z,58432
2018-06-16T08:07:04.642Z,36192
2018-06-16T08:08:06.351Z,40096
2018-06-16T08:09:08.040Z,53760
2018-06-16T08:10:09.714Z,59104
2018-06-16T08:11:11.386Z,40960
2018-06-16T08:12:13.060Z,35616
2018-06-16T08:13:14.767Z,33600
2018-06-16T08:14:16.438Z,33024
2018-06-16T08:15:18.128Z,33504
2018-06-16T08:16:19.793Z,36384
2018-06-16T08:17:21.457Z,39424
2018-06-16T08:18:23.180Z,43392
2018-06-16T08:19:24.858Z,82048
2018-06-16T08:20:26.529Z,80448
2018-06-16T08:21:28.199Z,60224
2018-06-16T08:22:29.873Z,47744
2018-06-16T08:23:31.546Z,54048
2018-06-16T08:24:33.294Z,60256
2018-06-16T08:25:34.867Z,49632
2018-06-16T08:26:36.563Z,49184
2018-06-16T08:27:38.243Z,65248
2018-06-16T08:28:40.056Z,71008
2018-06-16T08:29:41.782Z,79840
2018-06-16T08:30:43.467Z,63360
2018-06-16T08:31:45.146Z,70336
2018-06-16T08:32:46.813Z,67840
2018-06-16T08:33:48.489Z,54944
2018-06-16T08:34:50.188Z,48160
2018-06-16T08:35:51.847Z,50336
2018-06-16T08:36:53.534Z,60160
2018-06-16T08:37:55.209Z,71552
2018-06-16T08:38:56.880Z,52576
2018-06-16T08:39:58.579Z,51552
2018-06-16T08:41:00.384Z,52288
2018-06-16T08:42:02.059Z,48288
2018-06-16T08:43:03.768Z,46976
2018-06-16T08:44:05.412Z,51840
2018-06-16T08:45:07.074Z,61504
2018-06-16T08:46:08.749Z,51616
2018-06-16T08:47:10.428Z,54784
2018-06-16T08:48:12.101Z,57856
2018-06-16T08:49:13.791Z,57664
2018-06-16T08:50:15.465Z,60736
2018-06-16T08:51:17.135Z,62112
2018-06-16T08:52:18.824Z,61920
2018-06-16T08:53:20.592Z,66304
2018-06-16T08:54:22.164Z,60672
2018-06-16T08:55:24.062Z,58080
2018-06-16T08:56:25.785Z,63040
2018-06-16T08:57:28.190Z,67648
2018-06-16T08:58:29.937Z,67456
2018-06-16T08:59:31.627Z,77216
2018-06-16T09:00:33.312Z,80864
2018-06-16T09:01:34.992Z,83456
2018-06-16T09:02:36.706Z,75680
2018-06-16T09:03:38.371Z,78112
2018-06-16T09:04:40.107Z,75232
2018-06-16T09:05:41.814Z,74720
2018-06-16T09:06:43.544Z,79104
2018-06-16T09:07:45.327Z,78560
2018-06-16T09:08:47.029Z,85152
2018-06-16T09:09:48.767Z,73504
2018-06-16T09:10:50.446Z,68288
2018-06-16T09:11:52.116Z,71904
2018-06-16T09:12:53.795Z,69728
2018-06-16T09:13:55.490Z,74016
2018-06-16T09:14:57.162Z,81504
2018-06-16T09:15:58.849Z,81376
2018-06-16T09:17:00.518Z,80480
2018-06-16T09:18:02.232Z,79328
2018-06-16T09:19:03.905Z,81728
2018-06-16T09:20:05.576Z,81280
2018-06-16T09:21:07.261Z,83744
2018-06-16T09:22:08.961Z,79392
2018-06-16T09:23:10.620Z,76320
2018-06-16T09:24:12.310Z,74112
2018-06-16T09:25:13.991Z,66304
2018-06-16T09:26:15.664Z,72448
2018-06-16T09:27:17.339Z,66592
2018-06-16T09:28:19.025Z,51552
2018-06-16T09:29:20.705Z,46016
2018-06-16T09:30:22.380Z,58304
2018-06-16T09:31:24.066Z,47424
2018-06-16T09:32:25.740Z,42272
2018-06-16T09:33:27.415Z,63296
2018-06-16T09:34:29.105Z,46016
2018-06-16T09:35:30.781Z,57472
2018-06-16T09:36:32.462Z,39296
2018-06-16T09:37:34.138Z,38656
2018-06-16T09:38:35.811Z,39456
2018-06-16T09:39:37.535Z,59584
2018-06-16T09:40:39.221Z,55136
2018-06-16T09:41:43.481Z,40576
2018-06-16T09:42:45.151Z,37920
2018-06-16T09:43:46.842Z,35776
2018-06-16T09:44:48.520Z,35648
2018-06-16T09:45:50.188Z,36000
2018-06-16T09:46:51.860Z,37504
2018-06-16T09:47:53.531Z,40096
2018-06-16T09:48:55.250Z,43648
2018-06-16T09:49:56.935Z,54560
2018-06-16T09:50:58.603Z,75616
2018-06-16T09:52:00.270Z,67008
2018-06-16T09:53:01.953Z,61184
2018-06-16T09:54:03.628Z,60224
2018-06-16T09:55:05.311Z,61376
2018-06-16T10:01:28.783Z,30656
2018-06-16T10:02:30.454Z,29408
2018-06-16T10:03:32.115Z,28928
2018-06-16T10:04:33.815Z,29760
2018-06-16T10:05:35.497Z,30560
2018-06-16T10:06:37.167Z,30688
2018-06-16T10:07:38.849Z,30752
2018-06-16T10:08:40.621Z,34880
2018-06-16T10:09:42.302Z,40384
2018-06-16T10:10:44.000Z,38400
2018-06-16T10:11:45.669Z,40512
2018-06-16T10:12:47.839Z,44896
2018-06-16T10:13:49.598Z,43168
2018-06-16T10:14:51.277Z,44448
2018-06-16T10:15:53.653Z,49536
2018-06-16T10:16:55.368Z,77728
2018-06-16T10:17:57.050Z,73632
2018-06-16T10:18:58.745Z,41984
2018-06-16T10:20:00.422Z,39072
2018-06-16T10:21:02.094Z,38464
2018-06-16T10:22:03.774Z,39168
2018-06-16T10:23:05.445Z,41024
2018-06-16T10:24:07.126Z,65312
2018-06-16T10:25:08.799Z,47488
2018-06-16T10:26:10.461Z,53952
2018-06-16T10:27:12.144Z,78240
2018-06-16T10:28:13.832Z,75104
2018-06-16T10:29:15.516Z,86016
2018-06-16T10:30:17.199Z,74240
2018-06-16T10:31:18.883Z,68672
2018-06-16T10:32:20.569Z,70784
2018-06-16T10:33:23.633Z,66432
2018-06-16T10:34:25.326Z,48544
2018-06-16T10:35:27.012Z,58848
2018-06-16T10:36:28.726Z,47424
2018-06-16T10:37:30.401Z,47776
2018-06-16T10:38:33.654Z,48192
2018-06-16T10:39:35.338Z,44576
2018-06-16T10:40:37.017Z,43808
2018-06-16T10:41:38.700Z,68352
2018-06-16T10:42:40.423Z,75136
2018-06-16T10:43:42.130Z,47264
2018-06-16T10:44:43.807Z,44576
2018-06-16T10:45:45.669Z,43808
2018-06-16T10:46:47.383Z,65824
2018-06-16T10:47:49.835Z,73504
2018-06-16T10:48:51.519Z,48960
2018-06-16T10:49:54.104Z,43008
2018-06-16T10:50:55.781Z,39168
2018-06-16T10:51:58.281Z,37952
2018-06-16T10:53:00.782Z,38304
2018-06-16T10:54:02.471Z,37248
2018-06-16T10:55:04.154Z,36736
2018-06-16T10:56:05.829Z,37920
2018-06-16T10:57:08.453Z,45088
2018-06-16T10:58:10.148Z,46240
2018-06-16T10:59:11.835Z,49696
2018-06-16T11:00:13.524Z,49760
2018-06-16T11:01:16.809Z,46656
2018-06-16T11:02:18.514Z,46912
2018-06-16T11:03:21.102Z,70976
2018-06-16T11:04:22.792Z,51392
2018-06-16T11:05:24.481Z,71936
2018-06-16T11:06:27.022Z,47840
2018-06-16T11:07:28.708Z,58464
2018-06-16T11:08:31.292Z,53088
2018-06-16T11:09:32.969Z,32192
2018-06-16T11:10:34.664Z,29248
2018-06-16T11:11:37.254Z,27264
2018-06-16T11:12:38.932Z,25888
2018-06-16T11:13:41.335Z,25664
2018-06-16T11:14:43.017Z,26656
2018-06-16T11:15:44.701Z,28384
2018-06-16T11:16:47.287Z,30688
2018-06-16T11:17:48.975Z,33440
2018-06-16T11:18:51.543Z,36896
2018-06-16T11:19:53.225Z,42400
2018-06-16T11:20:55.785Z,65056
2018-06-16T11:21:57.460Z,62432
2018-06-16T11:22:59.856Z,44480
2018-06-16T11:24:01.579Z,38688
2018-06-16T11:25:07.171Z,36992
2018-06-16T11:26:08.858Z,42112
2018-06-16T11:27:10.541Z,37824
2018-06-16T11:28:12.228Z,41792
2018-06-16T11:29:13.921Z,38560
2018-06-16T11:30:15.606Z,33888
2018-06-16T11:31:17.308Z,32864
2018-06-16T11:32:19.124Z,31776
2018-06-16T11:33:20.809Z,31104
2018-06-16T11:34:23.321Z,31328
2018-06-16T11:35:24.999Z,32032
2018-06-16T11:36:26.693Z,33056
2018-06-16T11:37:28.374Z,34944
2018-06-16T11:38:30.996Z,37344
2018-06-16T11:39:33.569Z,41568
2018-06-16T11:40:35.251Z,42560
2018-06-16T11:41:36.940Z,45760
2018-06-16T11:42:39.542Z,45888
2018-06-16T11:43:41.221Z,48928
2018-06-16T11:44:42.939Z,77440
2018-06-16T11:45:45.314Z,71392
2018-06-16T11:46:46.998Z,87872
2018-06-16T11:47:48.679Z,98976
2018-06-16T11:48:51.300Z,98016
2018-06-16T11:49:53.824Z,97632
2018-06-16T11:50:55.532Z,43136
2018-06-16T11:51:58.137Z,38176
2018-06-16T11:52:59.818Z,38080
2018-06-16T11:54:01.570Z,54400
2018-06-16T11:55:04.095Z,57504
2018-06-16T11:56:06.670Z,64256
2018-06-16T11:57:08.365Z,46496
2018-06-16T11:58:10.818Z,54368
2018-06-16T11:59:12.504Z,75456
2018-06-16T12:00:15.070Z,81792
2018-06-16T12:01:17.363Z,81728
2018-06-16T12:02:19.037Z,71072
2018-06-16T12:03:20.709Z,40224
2018-06-16T12:04:22.427Z,36288
2018-06-16T12:05:24.114Z,35072
2018-06-16T12:06:25.794Z,35264
2018-06-16T12:07:28.380Z,34912
2018-06-16T12:08:30.834Z,32896
2018-06-16T12:09:33.381Z,31936
2018-06-16T12:10:35.822Z,30496
2018-06-16T12:11:37.507Z,29280
2018-06-16T12:12:39.184Z,29376
2018-06-16T12:13:40.939Z,30656
2018-06-16T12:14:43.569Z,38368
2018-06-16T12:15:46.750Z,35840
2018-06-16T12:16:48.469Z,39456
2018-06-16T12:17:50.154Z,43584
2018-06-16T12:18:51.836Z,48768
2018-06-16T12:19:53.526Z,63872
2018-06-16T12:20:55.210Z,64832
2018-06-16T12:21:56.881Z,93056
2018-06-16T12:22:58.606Z,95008
2018-06-16T12:24:00.283Z,95424
2018-06-16T12:25:01.989Z,93248
2018-06-16T12:26:03.669Z,66624
2018-06-16T12:27:05.350Z,55488
2018-06-16T12:28:07.045Z,71200
2018-06-16T12:29:08.713Z,54592
2018-06-16T12:30:10.390Z,51360
2018-06-16T12:31:12.068Z,47712
2018-06-16T12:32:13.744Z,50016
2018-06-16T12:33:15.428Z,44736
2018-06-16T12:34:17.104Z,76224
2018-06-16T12:35:18.779Z,47840
2018-06-16T12:36:20.452Z,41056
2018-06-16T12:37:22.128Z,43072
2018-06-16T12:38:23.812Z,40512
2018-06-16T12:39:25.492Z,39904
2018-06-16T12:40:27.179Z,39712
2018-06-16T12:41:28.851Z,50848
2018-06-16T12:42:30.533Z,51264
2018-06-16T12:43:32.214Z,48928
2018-06-16T12:44:33.931Z,54080
2018-06-16T12:45:35.597Z,48576
2018-06-16T12:46:37.270Z,43552
2018-06-16T12:47:38.960Z,44128
2018-06-16T12:48:40.632Z,40288
2018-06-16T12:49:42.331Z,35712
2018-06-16T12:50:44.006Z,37440
2018-06-16T12:51:45.675Z,33408
2018-06-16T12:52:47.347Z,31744
2018-06-16T12:53:49.048Z,30496
2018-06-16T12:54:50.710Z,29824
2018-06-16T12:55:52.400Z,29088
2018-06-16T12:56:54.188Z,30112
2018-06-16T12:57:55.903Z,31776
2018-06-16T12:58:57.495Z,40384
2018-06-16T12:59:59.161Z,44864
2018-06-16T13:01:00.882Z,43808
2018-06-16T13:02:02.591Z,38624
2018-06-16T13:03:04.265Z,40000
2018-06-16T13:04:05.931Z,41344
2018-06-16T13:05:07.605Z,41920
2018-06-16T13:06:09.284Z,42400
2018-06-16T13:07:10.946Z,42304
2018-06-16T13:08:12.621Z,41216
2018-06-16T13:09:14.304Z,39712
2018-06-16T13:10:15.986Z,38560
2018-06-16T13:11:17.660Z,38560
2018-06-16T13:12:19.349Z,39840
2018-06-16T13:13:21.080Z,41280
2018-06-16T13:14:22.810Z,41632
2018-06-16T13:15:24.487Z,77472
2018-06-16T13:16:26.194Z,87136
2018-06-16T13:17:27.953Z,83104
2018-06-16T13:18:29.668Z,94848
2018-06-16T13:19:31.460Z,95456
2018-06-16T13:20:33.465Z,101888
2018-06-16T13:21:35.349Z,96832
2018-06-16T13:22:37.000Z,47200
2018-06-16T13:23:38.677Z,72128
2018-06-16T13:24:40.356Z,103840
2018-06-16T13:25:42.046Z,95072
2018-06-16T13:26:43.714Z,113472
2018-06-16T13:27:45.406Z,115072
2018-06-16T13:28:47.093Z,113696
2018-06-16T13:29:48.773Z,112320
2018-06-16T13:30:50.456Z,108704
2018-06-16T13:31:52.123Z,87648
2018-06-16T13:32:53.846Z,77088
2018-06-16T13:33:55.519Z,80704
2018-06-16T13:34:57.202Z,61728
2018-06-16T13:35:58.878Z,54880
2018-06-16T13:37:00.556Z,51232
2018-06-16T13:38:02.235Z,33536
2018-06-16T13:39:03.927Z,42048
2018-06-16T13:40:05.602Z,47328
2018-06-16T13:41:07.280Z,32992
2018-06-16T13:42:08.959Z,34720
2018-06-16T13:43:10.713Z,51712
2018-06-16T13:44:12.338Z,44608
2018-06-16T13:45:14.035Z,34976
2018-06-16T13:46:15.716Z,37856
2018-06-16T13:47:18.152Z,30368
2018-06-16T13:48:20.364Z,29056
2018-06-16T13:49:22.045Z,27904
2018-06-16T13:50:23.734Z,27936
2018-06-16T13:51:26.849Z,28960
2018-06-16T13:52:28.527Z,28736
2018-06-16T13:53:30.838Z,29216
2018-06-16T13:54:32.527Z,31136
2018-06-16T14:01:05.401Z,46176
2018-06-16T14:02:07.065Z,50176
2018-06-16T14:03:08.740Z,40832
2018-06-16T14:04:10.416Z,38368
2018-06-16T14:05:12.096Z,38368
2018-06-16T14:06:13.777Z,96864
2018-06-16T14:07:15.443Z,98688
2018-06-16T14:08:17.126Z,69344
2018-06-16T14:09:18.820Z,78912
2018-06-16T14:10:20.489Z,77664
2018-06-16T14:11:22.164Z,74944
2018-06-16T14:12:23.843Z,64256
2018-06-16T14:13:25.510Z,49824
2018-06-16T14:14:27.177Z,45888
2018-06-16T14:15:28.861Z,40128
2018-06-16T14:16:30.546Z,50752
2018-06-16T14:17:32.214Z,50944
2018-06-16T14:18:33.898Z,52384
2018-06-16T14:19:35.584Z,46752
2018-06-16T14:20:37.257Z,36512
2018-06-16T14:21:38.937Z,35040
2018-06-16T14:22:40.604Z,35872
2018-06-16T14:23:42.287Z,37184
2018-06-16T14:24:43.959Z,42944
2018-06-16T14:25:45.695Z,32288
2018-06-16T14:26:47.323Z,31072
2018-06-16T14:27:49.006Z,31200
2018-06-16T14:28:50.673Z,37312
2018-06-16T14:29:52.353Z,45632
2018-06-16T14:30:54.034Z,38080
2018-06-16T14:31:55.713Z,53728
2018-06-16T14:32:57.452Z,52288
2018-06-16T14:33:59.075Z,68480
2018-06-16T14:35:00.751Z,43712
2018-06-16T14:36:02.436Z,44704
2018-06-16T14:37:04.105Z,55072
2018-06-16T14:38:05.816Z,61472
2018-06-16T14:39:07.513Z,64320
2018-06-16T14:40:09.198Z,37888
2018-06-16T14:41:10.878Z,35712
2018-06-16T14:42:12.550Z,24864
2018-06-16T14:43:14.239Z,52960
2018-06-16T14:44:15.918Z,60352
2018-06-16T14:45:17.586Z,29472
2018-06-16T14:46:19.287Z,22784
2018-06-16T14:47:20.978Z,25408
2018-06-16T14:48:22.650Z,24672
2018-06-16T14:49:24.324Z,18016
2018-06-16T14:50:26.009Z,16160
2018-06-16T14:51:27.683Z,13780
2018-06-16T14:52:29.367Z,12840
2018-06-16T14:53:31.046Z,12384
2018-06-16T14:54:32.720Z,11944
2018-06-16T14:55:34.394Z,11780
2018-06-16T14:56:36.105Z,12016
2018-06-16T14:57:37.740Z,12548
2018-06-16T14:58:39.411Z,13376
2018-06-16T14:59:41.223Z,14776
2018-06-16T15:00:42.844Z,16480
2018-06-16T15:01:44.516Z,18688
2018-06-16T15:02:46.163Z,19616
2018-06-16T15:03:47.837Z,21696
2018-06-16T15:04:49.609Z,22880
2018-06-16T15:05:51.178Z,29408
2018-06-16T15:06:52.856Z,24384
2018-06-16T15:07:54.537Z,23424
2018-06-16T15:08:56.199Z,24032
2018-06-16T15:09:57.874Z,26560
2018-06-16T15:10:59.551Z,33696
2018-06-16T15:12:01.235Z,36320
2018-06-16T15:13:02.913Z,29984
2018-06-16T15:14:04.565Z,29024
2018-06-16T15:15:06.243Z,27296
2018-06-16T15:16:07.958Z,28320
2018-06-16T15:17:09.610Z,28064
2018-06-16T15:18:11.304Z,27232
2018-06-16T15:19:12.977Z,29376
2018-06-16T15:20:14.657Z,24832
2018-06-16T15:21:16.325Z,24320
2018-06-16T15:22:17.995Z,25408
2018-06-16T15:23:19.664Z,23648
2018-06-16T15:24:21.331Z,23712
2018-06-16T15:25:23.007Z,24128
2018-06-16T15:26:24.674Z,24384
2018-06-16T15:27:26.345Z,24352
2018-06-16T15:28:28.012Z,23136
2018-06-16T15:29:29.686Z,21600
2018-06-16T15:30:31.372Z,20928
2018-06-16T15:31:33.057Z,20960
2018-06-16T15:32:34.716Z,21920
2018-06-16T15:33:36.388Z,23712
2018-06-16T15:34:38.067Z,28288
2018-06-16T15:35:39.751Z,28512
2018-06-16T15:36:41.416Z,28128
2018-06-16T15:37:43.108Z,28480
2018-06-16T15:38:44.773Z,28416
2018-06-16T15:39:46.446Z,28224
2018-06-16T15:40:48.140Z,27840
2018-06-16T15:41:49.809Z,27488
2018-06-16T15:42:51.479Z,25376
2018-06-16T15:43:53.151Z,23136
2018-06-16T15:44:54.837Z,21600
2018-06-16T15:45:56.508Z,19296
2018-06-16T15:46:58.173Z,18208
2018-06-16T15:47:59.847Z,15620
2018-06-16T15:49:01.559Z,14540
2018-06-16T15:50:04.468Z,17276